Latest Weather Observations for Albion Park

IDN60801

Issued at 5:22 pm EDT Monday 18 February 2019 (issued every 10 minutes, with the page automatically refreshed every 10 minutes)

About weather observations | Map of weather stations | Latest weather observations for NSW | Other Formats
Station Details ID: 068241 Name: WOLLONGONG AIRPORT Lat: -34.56 Lon: 150.79 Height: 8.0 m
Data from the previous 72 hours. | See also: Recent months at Albion Park
Date/Time
EDT
Temp
°C
App
Temp
°C
Dew
Point
°C
Rel
Hum
%
Delta-T
°C
Wind Press
QNH
hPa
Press
MSL
hPa
Rain since
9am
mm
Dir  Spd
km/h
Gust
km/h
Spd
kts
Gust
kts
18/05:00pm 26.8 25.8 18.9 62 5.1 ENE 22 30 12 16 1004.5 1004.5 0.0
18/04:30pm 28.0 26.7 19.8 61 5.3 ENE 26 33 14 18 1004.8 1004.8 0.0
18/04:00pm 27.5 25.6 19.3 61 5.3 ENE 28 33 15 18 1005.1 1005.1 0.0
18/03:30pm 27.9 27.4 19.9 61 5.2 ENE 22 33 12 18 1005.6 1005.6 0.0
18/03:00pm 27.3 26.4 20.6 67 4.4 ENE 26 33 14 18 1005.9 1005.9 0.0
18/02:30pm 27.3 26.0 19.9 64 4.8 ENE 26 33 14 18 1006.6 1006.6 0.0
18/02:00pm 27.1 26.5 20.4 66 4.4 ENE 24 30 13 16 1007.0 1007.0 0.0
18/01:30pm 27.2 26.4 20.8 68 4.2 ENE 26 32 14 17 1007.4 1007.4 0.0
18/01:00pm 27.0 26.4 20.6 68 4.2 ENE 24 28 13 15 1007.8 1007.8 0.0
18/12:30pm 27.4 27.3 21.4 70 4.0 NE 24 32 13 17 1008.2 1008.2 0.0
18/12:00pm 27.0 26.8 21.3 71 3.8 NE 24 30 13 16 1008.7 1008.7 0.0
18/11:30am 26.3 25.6 20.2 69 4.0 NE 24 30 13 16 1009.3 1009.3 0.0
18/11:00am 27.0 26.5 19.9 65 4.6 ENE 22 28 12 15 1009.5 1009.5 0.0
18/10:30am 26.8 27.8 20.2 67 4.3 ENE 15 19 8 10 1009.7 1009.7 0.0
18/10:00am 25.7 27.5 19.6 69 3.9 ENE 9 13 5 7 1009.8 1009.8 0.0
18/09:30am 25.5 27.1 17.9 63 4.8 NE 6 9 3 5 1010.1 1010.1 0.0
18/09:00am 23.4 25.7 16.7 66 4.1 CALM 0 0 0 0 1010.3 1010.3 0.0
18/08:30am 21.7 24.2 17.3 76 2.7 CALM 0 0 0 0 1010.2 1010.2 0.0
18/08:00am 18.2 20.6 16.9 92 0.8 CALM 0 0 0 0 1010.1 1010.1 0.0
18/07:30am 16.6 18.0 16.3 98 0.2 W 4 7 2 4 1009.9 1009.9 0.0
18/07:00am 15.3 15.8 15.1 99 0.1 W 6 9 3 5 1009.8 1009.8 0.0
18/06:30am 14.5 15.1 14.3 99 0.1 W 4 9 2 5 1009.5 1009.5 0.0
18/06:00am 14.7 15.8 14.5 99 0.1 W 2 6 1 3 1009.4 1009.4 0.0
18/05:30am 14.9 15.3 14.7 99 0.1 W 6 7 3 4 1009.3 1009.3 0.0
18/05:00am 15.2 16.8 15.0 99 0.1 CALM 0 0 0 0 1009.3 1009.3 0.0
18/04:30am 15.0 16.2 14.8 99 0.1 W 2 6 1 3 1009.4 1009.4 0.0
18/04:00am 15.3 15.6 15.0 98 0.2 W 7 9 4 5 1009.6 1009.6 0.0
18/03:30am 15.6 17.3 15.3 98 0.2 CALM 0 0 0 0 1009.7 1009.7 0.0
18/03:00am 15.3 16.1 14.7 96 0.3 WSW 4 7 2 4 1009.9 1009.9 0.0
18/02:30am 16.0 17.8 15.5 97 0.3 CALM 0 0 0 0 1010.1 1010.1 0.0
18/02:00am 16.3 18.2 15.7 96 0.4 CALM 0 0 0 0 1010.5 1010.5 0.0
18/01:30am 17.1 19.3 16.5 96 0.4 CALM 0 2 0 1 1010.7 1010.7 0.0
18/01:00am 17.2 19.2 15.9 92 0.8 CALM 0 0 0 0 1011.0 1011.0 0.0
18/12:30am 18.1 20.3 16.6 91 0.9 CALM 0 0 0 0 1011.3 1011.3 0.0
18/12:00am 18.6 21.0 16.9 90 1.0 CALM 0 0 0 0 1011.6 1011.6 0.0
 
Date/Time
EDT
Temp
°C
App
Temp
°C
Dew
Point
°C
Rel
Hum
%
Delta-T
°C
Wind Press
QNH
hPa
Press
MSL
hPa
Rain since
9am
mm
Dir  Spd
km/h
Gust
km/h
Spd
kts
Gust
kts
17/11:30pm 19.2 21.7 17.2 88 1.2 CALM 0 0 0 0 1011.7 1011.7 0.0
17/11:00pm 19.8 21.0 17.4 86 1.5 WNW 7 9 4 5 1011.9 1011.9 0.0
17/10:30pm 19.9 20.4 17.5 86 1.5 W 11 13 6 7 1012.2 1012.2 0.0
17/10:00pm 20.2 20.4 17.6 85 1.6 WNW 13 15 7 8 1012.2 1012.2 0.0
17/09:30pm 20.9 22.1 17.3 80 2.2 NW 7 9 4 5 1011.8 1011.8 0.0
17/09:00pm 23.6 24.4 19.1 76 2.9 ENE 13 15 7 8 1011.4 1011.4 0.0
17/08:30pm 24.2 25.8 19.1 73 3.3 NE 9 13 5 7 1011.2 1011.2 0.0
17/08:00pm 24.7 24.7 18.2 67 4.1 NE 15 22 8 12 1010.9 1010.9 0.0
17/07:30pm 25.3 24.9 18.0 64 4.6 NE 17 24 9 13 1010.6 1010.6 0.0
17/07:00pm 26.1 25.2 17.7 60 5.3 ENE 19 24 10 13 1010.3 1010.3 0.0
17/06:30pm 26.3 25.3 17.6 58 5.5 ENE 19 22 10 12 1010.2 1010.2 0.0
17/06:00pm 26.6 25.7 18.2 60 5.3 NE 20 26 11 14 1010.1 1010.1 0.0
17/05:30pm 26.9 25.2 18.2 59 5.5 ENE 24 28 13 15 1010.3 1010.3 0.0
17/05:00pm 27.3 25.2 18.0 56 5.9 ENE 26 32 14 17 1010.5 1010.5 0.0
17/04:30pm 27.6 25.0 16.9 52 6.7 ENE 26 32 14 17 1010.4 1010.4 0.0
17/04:00pm 27.5 25.3 16.8 52 6.7 ENE 24 32 13 17 1010.6 1010.6 0.0
17/03:30pm 28.0 25.7 16.6 50 7.1 NE 24 32 13 17 1010.9 1010.9 0.0
17/03:00pm 27.4 25.9 17.8 55 6.1 ENE 22 32 12 17 1011.3 1011.3 0.0
17/02:30pm 27.6 25.9 18.0 55 6.1 NE 24 30 13 16 1011.6 1011.6 0.0
17/02:00pm 27.9 25.3 18.6 57 6.0 ENE 30 35 16 19 1011.8 1011.8 0.0
17/01:30pm 27.5 24.7 18.2 57 5.9 NE 30 37 16 20 1012.0 1012.0 0.0
17/01:00pm 28.8 27.1 18.9 55 6.4 NE 26 32 14 17 1012.3 1012.3 0.0
17/12:30pm 28.2 26.1 17.1 51 7.0 NE 24 32 13 17 1012.7 1012.7 0.0
17/12:00pm 28.1 26.4 18.2 55 6.3 NE 24 32 13 17 1013.2 1013.2 0.0
17/11:30am 28.5 27.7 19.2 57 6.0 ENE 22 26 12 14 1013.6 1013.6 0.0
17/11:00am 28.7 28.5 16.6 48 7.5 NNE 13 24 7 13 1013.7 1013.7 0.0
17/10:30am 27.1 26.4 17.3 55 6.1 ENE 17 22 9 12 1013.9 1013.9 0.0
17/10:00am 26.5 25.1 15.5 50 6.7 N 17 24 9 13 1014.2 1014.2 0.0
17/09:30am 25.1 26.0 17.6 63 4.7 ENE 9 13 5 7 1014.4 1014.4 0.0
17/09:00am 23.9 24.6 17.9 69 3.8 NE 11 13 6 7 1014.5 1014.5 0.0
17/08:30am 21.5 24.1 17.5 78 2.5 CALM 0 0 0 0 1014.5 1014.5 0.0
17/08:00am 18.2 20.8 17.4 95 0.5 CALM 0 0 0 0 1014.5 1014.5 0.0
17/07:30am 16.5 18.6 16.3 99 0.1 CALM 0 0 0 0 1014.4 1014.4 0.0
17/07:00am 15.2 16.8 15.0 99 0.1 CALM 0 0 0 0 1014.3 1014.3 0.0
17/06:30am 14.8 16.3 14.6 99 0.1 CALM 0 0 0 0 1014.1 1014.1 0.0
17/06:00am 15.3 16.5 15.0 98 0.2 WNW 2 6 1 3 1013.8 1013.8 0.0
17/05:30am 15.8 17.6 15.6 99 0.1 CALM 0 6 0 3 1013.7 1013.7 0.0
17/05:00am 15.9 17.7 15.6 98 0.2 CALM 0 0 0 0 1013.8 1013.8 0.0
17/04:30am 15.9 17.7 15.4 97 0.3 CALM 0 0 0 0 1014.1 1014.1 0.0
17/04:00am 16.2 18.1 15.7 97 0.3 CALM 0 0 0 0 1014.2 1014.2 0.0
17/03:30am 16.5 17.6 15.7 95 0.5 WNW 4 6 2 3 1014.6 1014.6 0.0
17/03:00am 16.8 17.7 16.0 95 0.5 NW 6 9 3 5 1014.8 1014.8 0.0
17/02:30am 16.5 17.2 15.7 95 0.5 WNW 6 6 3 3 1014.9 1014.9 0.0
17/02:00am 16.6 16.8 15.8 95 0.5 WNW 9 11 5 6 1015.3 1015.3 0.0
17/01:30am 16.5 18.3 15.4 93 0.6 CALM 0 0 0 0 1015.7 1015.7 0.0
17/01:00am 17.2 18.1 16.1 93 0.6 WNW 6 11 3 6 1016.3 1016.3 0.0
17/12:30am 17.1 17.8 15.6 91 0.9 WNW 6 9 3 5 1016.6 1016.6 0.0
17/12:00am 17.4 18.3 16.1 92 0.8 NW 6 7 3 4 1016.8 1016.8 0.0
 
Date/Time
EDT
Temp
°C
App
Temp
°C
Dew
Point
°C
Rel
Hum
%
Delta-T
°C
Wind Press
QNH
hPa
Press
MSL
hPa
Rain since
9am
mm
Dir  Spd
km/h
Gust
km/h
Spd
kts
Gust
kts
16/11:30pm 17.6 18.4 15.9 90 1.0 W 6 7 3 4 1017.0 1017.0 0.0
16/11:00pm 18.1 18.5 16.3 89 1.1 WNW 9 11 5 6 1017.1 1017.1 0.0
16/10:30pm 18.3 18.9 15.9 86 1.4 W 7 9 4 5 1017.5 1017.5 0.0
16/10:00pm 19.4 19.9 16.6 84 1.7 WNW 9 11 5 6 1017.4 1017.4 0.0
16/09:30pm 19.8 20.2 16.4 81 2.0 W 9 11 5 6 1017.5 1017.5 0.0
16/09:00pm 21.4 21.8 16.4 73 3.0 NW 9 11 5 6 1017.2 1017.2 0.0
16/08:30pm 23.2 22.7 16.0 64 4.4 N 13 19 7 10 1017.0 1017.0 0.0
16/08:00pm 23.5 23.5 16.3 64 4.4 NNE 11 19 6 10 1016.9 1016.9 0.0
16/07:30pm 23.8 23.0 16.1 62 4.7 NNE 15 20 8 11 1016.6 1016.6 0.0
16/07:00pm 24.1 22.5 16.1 61 4.9 NNE 19 32 10 17 1016.7 1016.7 0.0
16/06:30pm 24.4 23.5 16.9 63 4.6 NNE 17 28 9 15 1016.7 1016.7 0.0
16/06:00pm 24.6 23.0 16.6 61 4.9 NE 20 30 11 16 1016.9 1016.9 0.0
16/05:30pm 25.0 23.1 16.7 60 5.1 NE 22 28 12 15 1017.1 1017.1 0.0
16/05:00pm 25.2 23.6 16.4 58 5.4 NE 20 28 11 15 1017.2 1017.2 0.0
16/04:30pm 25.2 23.8 17.1 60 5.0 NE 20 32 11 17 1017.4 1017.4 0.0
16/04:00pm 25.5 23.6 16.6 58 5.5 NE 22 30 12 16 1017.6 1017.6 0.0
16/03:30pm 25.1 22.9 16.0 57 5.5 NE 22 28 12 15 1017.9 1017.9 0.0
16/03:00pm 25.7 23.2 17.1 59 5.3 NE 26 35 14 19 1018.4 1018.4 0.0
16/02:30pm 26.4 23.4 15.8 52 6.5 NE 26 33 14 18 1018.8 1018.8 0.0
16/02:00pm 26.8 23.6 15.2 49 7.0 NE 26 32 14 17 1019.1 1019.1 0.0
16/01:30pm 26.3 23.4 16.0 53 6.3 ENE 26 32 14 17 1019.4 1019.4 0.0
16/01:00pm 26.5 24.3 17.0 56 5.9 NE 24 30 13 16 1019.5 1019.5 0.0
16/12:30pm 26.5 24.5 17.3 57 5.8 ENE 24 32 13 17 1020.0 1020.0 0.0
16/12:00pm 26.5 24.0 15.2 49 6.8 ENE 22 28 12 15 1020.6 1020.6 0.0
16/11:30am 26.1 23.8 15.8 53 6.3 ENE 22 30 12 16 1020.9 1020.9 0.0
16/11:00am 25.7 25.0 16.5 56 5.7 ENE 15 20 8 11 1021.2 1021.2 0.0
16/10:30am 25.2 24.5 16.4 58 5.4 ENE 15 24 8 13 1021.4 1021.4 0.0
16/10:00am 25.0 24.7 16.4 59 5.3 ENE 13 20 7 11 1021.6 1021.6 0.0
16/09:30am 23.9 24.1 15.7 60 5.0 NE 9 17 5 9 1021.6 1021.6 0.0
16/09:00am 23.0 24.1 15.6 63 4.4 NW 4 7 2 4 1021.9 1021.9 0.0
16/08:30am 21.8 23.6 15.6 68 3.7 CALM 0 0 0 0 1021.8 1021.8 0.0
16/08:00am 19.6 21.4 16.4 82 1.9 W 2 6 1 3 1021.7 1021.7 0.0
16/07:30am 18.5 19.3 16.3 87 1.3 W 7 9 4 5 1021.6 1021.6 0.0
16/07:00am 17.1 19.1 16.1 94 0.6 CALM 0 0 0 0 1021.6 1021.6 0.0
16/06:30am 16.4 18.3 15.8 96 0.4 CALM 0 0 0 0 1021.3 1021.3 0.0
16/06:00am 15.7 17.0 15.1 96 0.3 W 2 7 1 4 1021.2 1021.2 0.0
16/05:30am 15.4 16.4 14.4 94 0.6 W 2 6 1 3 1021.1 1021.1 0.0
16/05:00am 15.7 16.7 14.2 91 0.8 W 2 6 1 3 1021.3 1021.3 0.0
16/04:30am 16.5 16.9 14.7 89 1.0 W 6 6 3 3 1021.3 1021.3 0.0
16/04:00am 17.4 18.5 15.6 89 1.1 W 4 6 2 3 1021.5 1021.5 0.0
16/03:30am 17.3 17.8 15.6 90 1.0 W 7 9 4 5 1021.4 1021.4 0.0
16/03:00am 16.2 17.9 15.2 94 0.6 CALM 0 0 0 0 1021.7 1021.7 0.0
16/02:30am 15.2 16.6 14.4 95 0.5 CALM 0 6 0 3 1022.0 1022.0 0.0
16/02:00am 15.0 15.1 13.9 93 0.6 WSW 6 7 3 4 1022.4 1022.4 0.0
16/01:30am 15.1 14.5 13.5 90 0.9 WSW 9 11 5 6 1022.8 1022.8 0.0
16/01:00am 16.1 16.3 14.3 89 1.0 WSW 6 9 3 5 1023.1 1023.1 0.0
16/12:30am 16.2 17.7 14.6 90 0.9 CALM 0 0 0 0 1023.4 1023.4 0.0
16/12:00am 16.2 16.5 14.6 90 0.9 W 6 9 3 5 1023.7 1023.7 0.0
 
Date/Time
EDT
Temp
°C
App
Temp
°C
Dew
Point
°C
Rel
Hum
%
Delta-T
°C
Wind Press
QNH
hPa
Press
MSL
hPa
Rain since
9am
mm
Dir  Spd
km/h
Gust
km/h
Spd
kts
Gust
kts
15/11:30pm 16.4 17.9 14.6 89 1.0 CALM 0 7 0 4 1023.7 1023.7 0.0
15/11:00pm 16.9 17.7 14.7 87 1.3 W 4 7 2 4 1024.0 1024.0 0.0
15/10:30pm 17.2 17.6 14.7 85 1.4 W 6 9 3 5 1024.2 1024.2 0.0
15/10:00pm 18.0 18.3 15.1 83 1.7 W 7 11 4 6 1024.2 1024.2 0.0
15/09:30pm 18.3 18.5 14.6 79 2.1 WNW 7 9 4 5 1023.8 1023.8 0.0
15/09:00pm 20.6 20.7 14.5 68 3.5 NW 7 9 4 5 1023.6 1023.6 0.0
15/08:30pm 22.4 21.9 15.0 63 4.4 N 11 19 6 10 1023.2 1023.2 0.0
15/08:00pm 22.7 22.0 14.3 59 4.9 NE 11 19 6 10 1022.9 1022.9 0.0
15/07:30pm 23.1 21.3 14.4 58 5.1 NE 17 20 9 11 1022.7 1022.7 0.0
15/07:00pm 23.6 22.1 15.4 60 4.9 ENE 17 20 9 11 1022.4 1022.4 0.0
15/06:30pm 23.9 21.9 15.4 59 5.1 ENE 20 24 11 13 1022.1 1022.1 0.0
15/06:00pm 24.6 22.7 15.8 58 5.3 ENE 20 28 11 15 1022.0 1022.0 0.0
15/05:30pm 24.8 22.6 16.0 58 5.4 NE 22 32 12 17 1022.0 1022.0 0.0

Other formats

Comma delimited format used in spreadsheet applications
http://www.bom.gov.au/fwo/IDN60801/IDN60801.95748.axf

JavaScript Object Notation format (JSON) in row-major order
http://www.bom.gov.au/fwo/IDN60801/IDN60801.95748.json

Data quality

Most of these data are generated automatically and are frequently updated. Quality checks on data are not normally performed. It is possible for incorrect values to appear. Refer to information at About Latest Weather Observations and please check the disclaimer before using these data.